createdAt,value
2022-10-23T00:01:35.267Z,34.90
2022-10-23T00:04:06.735Z,32.80
2022-10-23T00:06:35.942Z,35.20
2022-10-23T00:09:07.388Z,34.40
2022-10-23T00:11:36.411Z,34.70
2022-10-23T00:14:07.169Z,35.70
2022-10-23T00:19:03.790Z,30.40
2022-10-23T00:21:31.580Z,35.40
2022-10-23T00:23:59.464Z,31.70
2022-10-23T00:26:27.849Z,32.40
2022-10-23T00:28:56.516Z,34.20
2022-10-23T00:31:25.174Z,29.10
2022-10-23T00:33:53.630Z,32.90
2022-10-23T00:36:22.355Z,36.90
2022-10-23T00:38:51.104Z,30.10
2022-10-23T00:41:24.833Z,32.60
2022-10-23T00:44:04.172Z,32.40
2022-10-23T00:46:32.929Z,30.90
2022-10-23T00:49:01.351Z,29.90
2022-10-23T00:51:34.705Z,28.80
2022-10-23T00:54:25.017Z,28.50
2022-10-23T00:56:54.665Z,26.70
2022-10-23T00:59:22.939Z,31.60
2022-10-23T01:01:51.414Z,30.20
2022-10-23T01:04:19.869Z,28.90
2022-10-23T01:07:20.182Z,27.30
2022-10-23T01:10:15.193Z,27.20
2022-10-23T01:13:02.850Z,31.90
2022-10-23T01:16:05.882Z,29.50
2022-10-23T01:18:46.980Z,26.60
2022-10-23T01:24:28.611Z,26.10
2022-10-23T01:27:15.294Z,25.50
2022-10-23T01:30:01.573Z,28.00
2022-10-23T01:33:04.301Z,30.30
2022-10-23T01:35:49.046Z,26.00
2022-10-23T01:38:29.033Z,25.90
2022-10-23T01:41:06.679Z,32.50
2022-10-23T01:43:45.330Z,32.80
2022-10-23T01:46:17.037Z,32.70
2022-10-23T01:48:51.374Z,31.10
2022-10-23T01:51:22.062Z,32.20
2022-10-23T01:56:25.954Z,31.30
2022-10-23T01:58:56.641Z,34.20
2022-10-23T02:01:29.528Z,32.00
2022-10-23T02:06:32.819Z,34.90
2022-10-23T02:09:00.871Z,35.40
2022-10-23T02:11:31.429Z,34.80
2022-10-23T02:14:11.926Z,33.60
2022-10-23T02:16:57.576Z,34.10
2022-10-23T02:19:33.280Z,33.80
2022-10-23T02:22:35.071Z,35.80
2022-10-23T02:25:13.221Z,37.90
2022-10-23T02:27:48.263Z,39.30
2022-10-23T02:30:19.244Z,38.00
2022-10-23T02:32:54.831Z,36.40
2022-10-23T02:35:24.822Z,39.10
2022-10-23T02:38:00.974Z,38.10
2022-10-23T02:40:43.187Z,37.80
2022-10-23T02:45:59.128Z,36.60
2022-10-23T02:48:39.257Z,37.70
2022-10-23T02:51:50.077Z,36.10
2022-10-23T02:54:29.907Z,32.30
2022-10-23T02:57:06.162Z,37.40
2022-10-23T02:59:43.842Z,36.50
2022-10-23T03:02:41.306Z,37.00
2022-10-23T03:05:14.360Z,37.40
2022-10-23T03:07:44.152Z,40.40
2022-10-23T03:10:14.174Z,39.60
2022-10-23T03:12:42.661Z,35.10
2022-10-23T03:15:12.536Z,40.90
2022-10-23T03:17:41.110Z,38.40
2022-10-23T03:20:10.451Z,38.50
2022-10-23T03:22:38.736Z,37.00
2022-10-23T03:25:08.277Z,36.00
2022-10-23T03:27:36.893Z,36.20
2022-10-23T03:30:07.319Z,36.00
2022-10-23T03:32:35.692Z,36.80
2022-10-23T03:35:04.255Z,44.50
2022-10-23T03:37:32.820Z,38.50
2022-10-23T03:40:07.689Z,38.90
2022-10-23T03:42:37.204Z,38.50
2022-10-23T03:45:07.805Z,35.20
2022-10-23T03:47:43.059Z,31.60
2022-10-23T03:50:13.533Z,34.20
2022-10-23T03:52:41.466Z,35.00
2022-10-23T03:55:10.016Z,37.80
2022-10-23T03:57:38.291Z,35.60
2022-10-23T04:00:07.203Z,33.10
2022-10-23T04:02:45.317Z,32.30
2022-10-23T04:05:13.813Z,35.90
2022-10-23T04:07:42.108Z,34.40
2022-10-23T04:10:11.341Z,35.30
2022-10-23T04:12:40.897Z,34.10
2022-10-23T04:15:09.201Z,36.50
2022-10-23T04:17:37.184Z,31.90
2022-10-23T04:20:05.819Z,38.60
2022-10-23T04:22:33.605Z,37.10
2022-10-23T04:25:01.533Z,34.90
2022-10-23T04:27:30.922Z,41.30
2022-10-23T04:29:59.224Z,40.00
2022-10-23T04:32:27.577Z,35.20
2022-10-23T04:34:55.282Z,38.40
2022-10-23T04:37:23.957Z,39.50
2022-10-23T04:39:51.781Z,32.70
2022-10-23T04:42:19.777Z,37.00
2022-10-23T04:44:48.382Z,38.10
2022-10-23T04:47:16.201Z,34.30
2022-10-23T04:49:56.259Z,40.90
2022-10-23T04:52:57.765Z,38.40
2022-10-23T04:55:25.525Z,41.00
2022-10-23T04:58:27.615Z,37.10
2022-10-23T05:00:58.430Z,41.00
2022-10-23T05:03:27.629Z,44.10
2022-10-23T05:05:56.314Z,35.40
2022-10-23T05:08:53.242Z,33.90
2022-10-23T05:11:36.607Z,33.30
2022-10-23T05:14:07.867Z,31.10
2022-10-23T05:17:00.033Z,33.20
2022-10-23T05:19:34.785Z,33.30
2022-10-23T05:22:02.590Z,33.20
2022-10-23T05:24:49.677Z,38.90
2022-10-23T05:27:21.151Z,34.90
2022-10-23T05:29:49.004Z,34.80
2022-10-23T05:34:54.524Z,35.10
2022-10-23T05:37:25.819Z,34.50
2022-10-23T05:40:00.742Z,32.00
2022-10-23T05:42:28.739Z,29.70
2022-10-23T05:44:58.075Z,35.40
2022-10-23T05:47:46.884Z,33.70
2022-10-23T05:50:36.930Z,32.50
2022-10-23T05:53:42.452Z,36.60
2022-10-23T05:56:24.763Z,36.10
2022-10-23T05:59:03.303Z,34.90
2022-10-23T06:01:51.443Z,39.40
2022-10-23T06:04:42.627Z,37.10
2022-10-23T06:07:13.293Z,34.30
2022-10-23T06:09:44.077Z,35.90
2022-10-23T06:12:11.881Z,34.00
2022-10-23T06:15:08.571Z,35.40
2022-10-23T06:18:01.214Z,33.40
2022-10-23T06:20:36.269Z,38.10
2022-10-23T06:23:09.440Z,32.60
2022-10-23T06:26:08.885Z,32.30
2022-10-23T06:28:49.674Z,32.80
2022-10-23T06:31:26.566Z,38.00
2022-10-23T06:33:56.092Z,38.20
2022-10-23T06:36:24.208Z,33.80
2022-10-23T06:38:53.814Z,35.80
2022-10-23T06:41:23.182Z,36.10
2022-10-23T06:43:55.138Z,32.20
2022-10-23T06:46:30.193Z,34.60
2022-10-23T06:49:27.715Z,29.90
2022-10-23T06:51:56.176Z,34.60
2022-10-23T06:54:24.154Z,36.20
2022-10-23T06:56:55.574Z,32.00
2022-10-23T06:59:30.705Z,29.30
2022-10-23T07:02:24.235Z,33.30
2022-10-23T07:04:52.078Z,32.60
2022-10-23T07:07:20.362Z,31.90
2022-10-23T07:09:49.592Z,46.20
2022-10-23T07:12:40.909Z,31.80
2022-10-23T07:15:27.872Z,25.70
2022-10-23T07:17:56.354Z,29.90
2022-10-23T07:20:24.605Z,25.20
2022-10-23T07:22:54.525Z,28.00
2022-10-23T07:25:29.155Z,24.50
2022-10-23T07:27:57.581Z,25.30
2022-10-23T07:30:26.534Z,21.80
2022-10-23T07:32:55.753Z,18.90
2022-10-23T07:35:52.007Z,19.80
2022-10-23T07:38:25.689Z,22.60
2022-10-23T07:40:58.204Z,21.00
2022-10-23T07:43:26.595Z,19.40
2022-10-23T07:45:55.221Z,24.80
2022-10-23T07:48:31.190Z,19.00
2022-10-23T07:51:08.380Z,20.40
2022-10-23T07:53:39.312Z,29.70
2022-10-23T07:56:26.269Z,23.40
2022-10-23T07:59:14.570Z,25.50
2022-10-23T08:01:45.873Z,26.20
2022-10-23T08:04:14.383Z,20.70
2022-10-23T08:06:56.411Z,28.00
2022-10-23T08:09:25.209Z,25.70
2022-10-23T08:11:52.988Z,29.30
2022-10-23T08:14:21.023Z,25.60
2022-10-23T08:16:49.313Z,31.00
2022-10-23T08:19:19.661Z,33.20
2022-10-23T08:21:48.485Z,31.90
2022-10-23T08:24:17.969Z,48.80
2022-10-23T08:26:46.380Z,31.70
2022-10-23T08:29:14.632Z,30.40
2022-10-23T08:31:42.799Z,29.60
2022-10-23T08:34:25.853Z,27.40
2022-10-23T08:36:54.286Z,26.40
2022-10-23T08:39:22.086Z,29.60
2022-10-23T08:42:03.095Z,27.60
2022-10-23T08:44:36.476Z,24.50
2022-10-23T08:47:42.786Z,27.20
2022-10-23T08:50:47.456Z,27.30
2022-10-23T08:53:41.189Z,26.50
2022-10-23T08:56:37.903Z,25.10
2022-10-23T08:59:28.240Z,23.90
2022-10-23T09:02:05.451Z,23.50
2022-10-23T09:04:34.503Z,28.00
2022-10-23T09:07:32.319Z,25.70
2022-10-23T09:10:06.187Z,25.60
2022-10-23T09:12:34.115Z,23.40
2022-10-23T09:15:17.353Z,28.70
2022-10-23T09:17:46.171Z,24.30
2022-10-23T09:20:22.394Z,27.40
2022-10-23T09:22:54.942Z,21.60
2022-10-23T09:25:26.993Z,20.70
2022-10-23T09:28:00.194Z,22.50
2022-10-23T09:30:39.176Z,31.80
2022-10-23T09:33:20.141Z,25.70
2022-10-23T09:35:59.994Z,24.80
2022-10-23T09:38:27.763Z,24.80
2022-10-23T09:40:56.238Z,29.60
2022-10-23T09:43:27.422Z,28.70
2022-10-23T09:46:03.070Z,26.10
2022-10-23T09:48:31.243Z,22.20
2022-10-23T09:51:02.190Z,20.80
2022-10-23T09:53:35.885Z,22.90
2022-10-23T09:56:24.820Z,23.40
2022-10-23T09:58:59.298Z,21.10
2022-10-23T10:01:33.181Z,24.50
2022-10-23T10:04:17.565Z,25.40
2022-10-23T10:06:46.189Z,23.80
2022-10-23T10:09:16.542Z,21.90
2022-10-23T10:11:49.993Z,20.30
2022-10-23T10:14:39.388Z,22.00
2022-10-23T10:17:19.921Z,23.50
2022-10-23T10:19:50.675Z,25.50
2022-10-23T10:22:42.530Z,21.10
2022-10-23T10:25:21.446Z,24.00
2022-10-23T10:28:05.302Z,25.40
2022-10-23T10:30:56.510Z,21.20
2022-10-23T10:33:47.720Z,21.10
2022-10-23T10:36:30.671Z,21.20
2022-10-23T10:39:03.948Z,25.30
2022-10-23T10:41:56.076Z,27.10
2022-10-23T10:44:53.402Z,21.90
2022-10-23T10:47:29.309Z,23.90
2022-10-23T10:50:23.061Z,23.50
2022-10-23T10:53:24.272Z,20.30
2022-10-23T10:55:55.576Z,22.80
2022-10-23T10:58:32.022Z,22.20
2022-10-23T11:01:03.437Z,27.10
2022-10-23T11:03:40.286Z,20.80
2022-10-23T11:06:16.242Z,25.30
2022-10-23T11:08:56.537Z,23.80
2022-10-23T11:11:45.942Z,23.70
2022-10-23T11:14:19.537Z,25.30
2022-10-23T11:16:53.207Z,21.80
2022-10-23T11:19:43.297Z,19.40
2022-10-23T11:22:24.300Z,17.10
2022-10-23T11:25:32.195Z,19.20
2022-10-23T11:28:23.690Z,23.70
2022-10-23T11:31:22.527Z,33.80
2022-10-23T11:34:24.335Z,36.30
2022-10-23T11:36:58.758Z,33.70
2022-10-23T11:39:29.682Z,26.00
2022-10-23T11:42:08.834Z,22.50
2022-10-23T11:44:36.538Z,20.90
2022-10-23T11:47:39.649Z,21.80
2022-10-23T11:50:07.935Z,31.20
2022-10-23T11:52:45.447Z,27.10
2022-10-23T11:55:24.319Z,32.80
2022-10-23T11:58:34.912Z,25.50
2022-10-23T12:01:18.327Z,20.80
2022-10-23T12:03:54.462Z,22.60
2022-10-23T12:06:28.485Z,18.40
2022-10-23T12:09:06.775Z,18.80
2022-10-23T12:12:02.757Z,16.90
2022-10-23T12:14:43.471Z,15.90
2022-10-23T12:17:41.710Z,14.70
2022-10-23T12:20:22.807Z,16.80
2022-10-23T12:23:20.932Z,14.50
2022-10-23T12:26:16.404Z,23.70
2022-10-23T12:29:12.093Z,17.40
2022-10-23T12:31:59.139Z,20.50
2022-10-23T12:35:08.359Z,19.50
2022-10-23T12:38:00.656Z,14.80
2022-10-23T12:40:30.220Z,15.30
2022-10-23T12:43:00.846Z,15.60
2022-10-23T12:45:34.273Z,15.50
2022-10-23T12:48:02.057Z,15.10
2022-10-23T12:50:32.161Z,14.70
2022-10-23T12:53:07.690Z,13.00
2022-10-23T12:55:54.826Z,13.20
2022-10-23T12:58:26.249Z,12.40
2022-10-23T13:01:00.313Z,14.30
2022-10-23T13:03:30.600Z,15.00
2022-10-23T13:06:00.383Z,15.90
2022-10-23T13:08:41.122Z,14.60
2022-10-23T13:11:30.767Z,16.40
2022-10-23T13:14:01.712Z,15.80
2022-10-23T13:16:29.591Z,22.50
2022-10-23T13:18:57.337Z,15.90
2022-10-23T13:21:28.648Z,20.70
2022-10-23T13:23:56.786Z,19.80
2022-10-23T13:26:28.480Z,20.10
2022-10-23T13:28:57.557Z,13.60
2022-10-23T13:31:32.243Z,12.70
2022-10-23T13:34:00.150Z,12.50
2022-10-23T13:36:29.937Z,13.80
2022-10-23T13:39:00.104Z,11.50
2022-10-23T13:41:34.150Z,13.90
2022-10-23T13:44:01.941Z,10.50
2022-10-23T13:46:30.005Z,11.90
2022-10-23T13:48:58.033Z,11.50
2022-10-23T13:51:28.852Z,12.90
2022-10-23T13:53:57.630Z,12.70
2022-10-23T13:56:27.471Z,13.00
2022-10-23T13:58:55.273Z,11.70
2022-10-23T14:01:26.305Z,13.50
2022-10-23T14:03:55.866Z,13.60
2022-10-23T14:06:23.989Z,13.40
2022-10-23T14:08:52.338Z,13.20
2022-10-23T14:11:20.765Z,14.10
2022-10-23T14:13:49.553Z,13.40
2022-10-23T14:16:19.655Z,11.80
2022-10-23T14:18:48.134Z,12.60
2022-10-23T14:21:19.839Z,14.80
2022-10-23T14:23:48.657Z,17.40
2022-10-23T14:26:21.836Z,15.70
2022-10-23T14:28:53.389Z,13.30
2022-10-23T14:31:22.284Z,14.70
2022-10-23T14:33:56.229Z,14.30
2022-10-23T14:36:28.254Z,11.60
2022-10-23T14:39:02.253Z,15.80
2022-10-23T14:41:29.962Z,12.70
2022-10-23T14:43:57.757Z,14.90
2022-10-23T14:46:25.639Z,11.90
2022-10-23T14:48:57.521Z,16.70
2022-10-23T14:51:32.572Z,11.60
2022-10-23T14:54:06.246Z,16.00
2022-10-23T14:56:37.791Z,14.90
2022-10-23T14:59:05.685Z,14.60
2022-10-23T15:01:43.685Z,17.50
2022-10-23T15:04:15.198Z,15.90
2022-10-23T15:06:44.298Z,17.90
2022-10-23T15:09:12.196Z,24.10
2022-10-23T15:11:40.003Z,23.10
2022-10-23T15:14:08.266Z,22.80
2022-10-23T15:16:41.329Z,27.70
2022-10-23T15:19:18.091Z,34.70
2022-10-23T15:21:48.104Z,60.10
2022-10-23T15:24:17.320Z,46.90
2022-10-23T15:26:45.282Z,33.90
2022-10-23T15:29:14.791Z,37.80
2022-10-23T15:31:49.183Z,31.80
2022-10-23T15:34:20.837Z,33.00
2022-10-23T15:36:50.071Z,28.50
2022-10-23T15:39:26.024Z,27.20
2022-10-23T15:41:55.949Z,24.50
2022-10-23T15:44:26.709Z,26.80
2022-10-23T15:46:57.068Z,24.30
2022-10-23T15:49:26.548Z,24.90
2022-10-23T15:51:54.441Z,22.30
2022-10-23T15:54:22.874Z,22.60
2022-10-23T15:56:53.134Z,25.20
2022-10-23T15:59:23.691Z,29.90
2022-10-23T16:01:52.105Z,20.60
2022-10-23T16:04:20.123Z,21.00
2022-10-23T16:06:48.614Z,21.90
2022-10-23T16:09:16.517Z,20.70
2022-10-23T16:11:44.535Z,20.70
2022-10-23T16:14:14.570Z,25.90
2022-10-23T16:16:42.829Z,22.70
2022-10-23T16:19:11.536Z,20.90
2022-10-23T16:21:39.433Z,25.20
2022-10-23T16:24:08.226Z,23.00
2022-10-23T16:26:36.841Z,22.20
2022-10-23T16:29:07.430Z,23.80
2022-10-23T16:31:35.653Z,21.80
2022-10-23T16:34:05.272Z,23.10
2022-10-23T16:36:34.482Z,29.30
2022-10-23T16:39:14.348Z,38.70
2022-10-23T16:42:20.469Z,39.30
2022-10-23T16:45:02.351Z,39.40
2022-10-23T16:47:33.799Z,43.60
2022-10-23T16:50:01.601Z,43.00
2022-10-23T16:52:29.960Z,41.20
2022-10-23T16:54:57.827Z,52.50
2022-10-23T16:57:27.885Z,52.00
2022-10-23T16:59:55.680Z,53.20
2022-10-23T17:02:23.604Z,61.90
2022-10-23T17:04:51.654Z,61.30
2022-10-23T17:07:19.601Z,64.50
2022-10-23T17:09:47.486Z,68.00
2022-10-23T17:12:16.753Z,68.90
2022-10-23T17:14:44.643Z,54.40
2022-10-23T17:17:12.432Z,50.00
2022-10-23T17:19:45.981Z,45.00
2022-10-23T17:22:16.426Z,33.20
2022-10-23T17:24:46.434Z,41.30
2022-10-23T17:27:16.956Z,43.50
2022-10-23T17:29:44.802Z,47.80
2022-10-23T17:32:12.758Z,59.20
2022-10-23T17:34:40.575Z,73.80
2022-10-23T17:37:10.131Z,77.00
2022-10-23T17:39:37.954Z,83.00
2022-10-23T17:42:16.334Z,71.80
2022-10-23T17:44:50.690Z,74.70
2022-10-23T17:47:18.507Z,67.10
2022-10-23T17:49:46.347Z,71.40
2022-10-23T17:52:15.027Z,64.90
2022-10-23T17:54:42.874Z,64.40
2022-10-23T17:57:10.791Z,65.80
2022-10-23T17:59:39.159Z,59.20
2022-10-23T18:02:07.197Z,60.20
2022-10-23T18:04:35.103Z,75.10
2022-10-23T18:07:02.758Z,66.40
2022-10-23T18:09:30.631Z,61.80
2022-10-23T18:11:58.446Z,65.60
2022-10-23T18:14:29.424Z,64.50
2022-10-23T18:16:57.722Z,59.90
2022-10-23T18:19:25.463Z,77.90
2022-10-23T18:21:53.330Z,80.60
2022-10-23T18:24:21.285Z,67.40
2022-10-23T18:26:49.261Z,55.20
2022-10-23T18:29:17.666Z,48.80
2022-10-23T18:31:48.099Z,42.30
2022-10-23T18:34:16.076Z,39.50
2022-10-23T18:36:44.102Z,35.30
2022-10-23T18:39:14.999Z,40.40
2022-10-23T18:41:44.954Z,42.40
2022-10-23T18:44:17.351Z,40.00
2022-10-23T18:46:46.407Z,48.70
2022-10-23T18:49:14.890Z,61.40
2022-10-23T18:51:42.997Z,59.90
2022-10-23T18:54:14.116Z,66.60
2022-10-23T18:56:42.998Z,59.90
2022-10-23T18:59:17.274Z,54.90
2022-10-23T19:01:45.122Z,57.60
2022-10-23T19:04:15.798Z,60.80
2022-10-23T19:09:13.995Z,68.10
2022-10-23T19:11:42.833Z,73.20
2022-10-23T19:14:11.305Z,73.50
2022-10-23T19:17:08.649Z,73.00
2022-10-23T19:19:48.632Z,58.60
2022-10-23T19:22:16.994Z,53.20
2022-10-23T19:24:57.947Z,54.50
2022-10-23T19:27:27.001Z,58.00
2022-10-23T19:29:55.931Z,64.80
2022-10-23T19:32:23.839Z,67.90
2022-10-23T19:34:51.747Z,49.40
2022-10-23T19:37:20.130Z,44.30
2022-10-23T19:39:47.856Z,39.60
2022-10-23T19:42:15.748Z,40.30
2022-10-23T19:44:43.594Z,37.50
2022-10-23T19:47:11.483Z,34.40
2022-10-23T19:49:39.437Z,36.50
2022-10-23T19:52:07.378Z,39.60
2022-10-23T19:54:35.295Z,41.80
2022-10-23T19:57:03.334Z,39.60
2022-10-23T19:59:31.066Z,42.50
2022-10-23T20:01:59.226Z,40.40
2022-10-23T20:04:28.833Z,34.30
2022-10-23T20:06:56.686Z,36.50
2022-10-23T20:09:24.469Z,39.50
2022-10-23T20:11:52.336Z,41.10
2022-10-23T20:14:20.120Z,37.80
2022-10-23T20:16:50.169Z,37.40
2022-10-23T20:19:21.264Z,38.10
2022-10-23T20:21:49.290Z,38.20
2022-10-23T20:24:19.327Z,41.20
2022-10-23T20:26:51.042Z,41.20
2022-10-23T20:29:19.021Z,38.90
2022-10-23T20:31:47.921Z,39.40
2022-10-23T20:34:16.032Z,42.30
2022-10-23T20:36:46.944Z,44.90
2022-10-23T20:39:18.990Z,40.00
2022-10-23T20:41:47.624Z,39.10
2022-10-23T20:46:49.873Z,33.70
2022-10-23T20:49:18.134Z,37.10
2022-10-23T20:51:54.113Z,35.40
2022-10-23T20:54:25.429Z,33.70
2022-10-23T20:56:53.198Z,35.30
2022-10-23T20:59:21.085Z,36.40
2022-10-23T21:01:51.306Z,36.10
2022-10-23T21:04:22.508Z,34.80
2022-10-23T21:09:40.063Z,28.50
2022-10-23T21:12:08.539Z,35.70
2022-10-23T21:14:36.565Z,37.10
2022-10-23T21:17:05.179Z,33.50
2022-10-23T21:19:33.251Z,36.40
2022-10-23T21:22:01.211Z,31.60
2022-10-23T21:24:29.028Z,38.40
2022-10-23T21:26:56.934Z,35.20
2022-10-23T21:29:24.814Z,34.40
2022-10-23T21:31:59.195Z,37.30
2022-10-23T21:34:27.972Z,36.90
2022-10-23T21:37:13.800Z,37.40
2022-10-23T21:39:43.677Z,32.10
2022-10-23T21:42:14.904Z,31.30
2022-10-23T21:44:42.978Z,32.50
2022-10-23T21:47:10.908Z,30.90
2022-10-23T21:49:38.667Z,29.40
2022-10-23T21:52:06.591Z,31.30
2022-10-23T21:54:34.406Z,30.80
2022-10-23T21:57:04.137Z,30.20
2022-10-23T21:59:35.490Z,29.50
2022-10-23T22:02:04.357Z,30.20
2022-10-23T22:04:32.240Z,28.30
2022-10-23T22:07:00.339Z,25.60
2022-10-23T22:09:28.976Z,24.70
2022-10-23T22:11:57.333Z,25.70
2022-10-23T22:14:27.314Z,24.00
2022-10-23T22:16:55.945Z,24.20
2022-10-23T22:19:23.782Z,24.60
2022-10-23T22:21:51.704Z,23.00
2022-10-23T22:24:20.125Z,22.60
2022-10-23T22:26:51.465Z,23.30
2022-10-23T22:29:22.427Z,23.70
2022-10-23T22:31:51.898Z,26.60
2022-10-23T22:34:48.424Z,24.30
2022-10-23T22:37:14.828Z,23.00
2022-10-23T22:39:42.787Z,23.90
2022-10-23T22:42:11.057Z,23.70
2022-10-23T22:44:38.774Z,23.70
2022-10-23T22:47:06.882Z,22.00
2022-10-23T22:49:36.039Z,24.70
2022-10-23T22:52:04.758Z,25.90
2022-10-23T22:54:32.646Z,19.40
2022-10-23T22:57:00.810Z,19.30
2022-10-23T22:59:28.611Z,18.90
2022-10-23T23:01:56.365Z,18.50
2022-10-23T23:04:39.854Z,19.50
2022-10-23T23:07:11.983Z,19.80
2022-10-23T23:09:42.536Z,23.90
2022-10-23T23:12:13.572Z,21.40
2022-10-23T23:14:42.435Z,18.10
2022-10-23T23:17:10.770Z,16.50
2022-10-23T23:19:38.603Z,16.70
2022-10-23T23:22:06.530Z,17.50
2022-10-23T23:24:34.441Z,16.60
2022-10-23T23:27:02.410Z,16.90
2022-10-23T23:29:30.163Z,14.10
2022-10-23T23:31:58.114Z,17.10
2022-10-23T23:34:26.463Z,19.50
2022-10-23T23:36:54.264Z,16.50
2022-10-23T23:39:22.024Z,15.60
2022-10-23T23:41:49.866Z,15.20
2022-10-23T23:44:17.586Z,16.60
2022-10-23T23:46:45.315Z,12.50
2022-10-23T23:49:13.105Z,15.30
2022-10-23T23:51:41.094Z,19.40
2022-10-23T23:54:08.838Z,15.10
2022-10-23T23:56:36.673Z,14.00
2022-10-23T23:59:04.686Z,12.80
